sensor_id;sensor_type;location;lat;lon;timestamp;P1;durP1;ratioP1;P2;durP2;ratioP2
54171;SDS011;40076;52.354;4.970;2023-10-09T00:01:25;47.42;;;29.13;;
54171;SDS011;40076;52.354;4.970;2023-10-09T00:03:51;49.03;;;28.73;;
54171;SDS011;40076;52.354;4.970;2023-10-09T00:06:19;53.10;;;29.35;;
54171;SDS011;40076;52.354;4.970;2023-10-09T00:11:49;45.92;;;26.70;;
54171;SDS011;40076;52.354;4.970;2023-10-09T00:14:21;44.05;;;27.38;;
54171;SDS011;40076;52.354;4.970;2023-10-09T00:16:48;41.08;;;27.60;;
54171;SDS011;40076;52.354;4.970;2023-10-09T00:19:14;45.88;;;27.38;;
54171;SDS011;40076;52.354;4.970;2023-10-09T00:21:40;47.95;;;27.25;;
54171;SDS011;40076;52.354;4.970;2023-10-09T00:24:06;41.30;;;27.40;;
54171;SDS011;40076;52.354;4.970;2023-10-09T00:26:39;49.95;;;28.35;;
54171;SDS011;40076;52.354;4.970;2023-10-09T00:29:13;47.55;;;27.48;;
54171;SDS011;40076;52.354;4.970;2023-10-09T00:31:54;45.88;;;26.45;;
54171;SDS011;40076;52.354;4.970;2023-10-09T00:34:28;47.15;;;28.02;;
54171;SDS011;40076;52.354;4.970;2023-10-09T00:36:54;45.85;;;26.88;;
54171;SDS011;40076;52.354;4.970;2023-10-09T00:39:20;48.05;;;28.20;;
54171;SDS011;40076;52.354;4.970;2023-10-09T00:42:01;42.80;;;26.00;;
54171;SDS011;40076;52.354;4.970;2023-10-09T00:44:28;44.58;;;25.85;;
54171;SDS011;40076;52.354;4.970;2023-10-09T00:47:06;42.13;;;24.95;;
54171;SDS011;40076;52.354;4.970;2023-10-09T00:49:46;43.67;;;24.95;;
54171;SDS011;40076;52.354;4.970;2023-10-09T00:52:35;41.88;;;26.17;;
54171;SDS011;40076;52.354;4.970;2023-10-09T00:55:09;40.38;;;24.92;;
54171;SDS011;40076;52.354;4.970;2023-10-09T00:57:43;41.78;;;25.27;;
54171;SDS011;40076;52.354;4.970;2023-10-09T01:00:17;44.95;;;25.40;;
54171;SDS011;40076;52.354;4.970;2023-10-09T01:03:00;41.80;;;22.65;;
54171;SDS011;40076;52.354;4.970;2023-10-09T01:05:46;38.22;;;24.33;;
54171;SDS011;40076;52.354;4.970;2023-10-09T01:08:20;38.22;;;23.63;;
54171;SDS011;40076;52.354;4.970;2023-10-09T01:11:05;41.40;;;23.90;;
54171;SDS011;40076;52.354;4.970;2023-10-09T01:13:35;30.83;;;21.92;;
54171;SDS011;40076;52.354;4.970;2023-10-09T01:16:07;42.63;;;22.27;;
54171;SDS011;40076;52.354;4.970;2023-10-09T01:18:42;36.80;;;21.55;;
54171;SDS011;40076;52.354;4.970;2023-10-09T01:21:14;39.30;;;20.42;;
54171;SDS011;40076;52.354;4.970;2023-10-09T01:23:44;36.65;;;21.45;;
54171;SDS011;40076;52.354;4.970;2023-10-09T01:26:33;36.13;;;21.48;;
54171;SDS011;40076;52.354;4.970;2023-10-09T01:29:04;42.17;;;21.50;;
54171;SDS011;40076;52.354;4.970;2023-10-09T01:31:39;31.52;;;19.70;;
54171;SDS011;40076;52.354;4.970;2023-10-09T01:34:41;39.47;;;21.02;;
54171;SDS011;40076;52.354;4.970;2023-10-09T01:37:09;35.13;;;21.60;;
54171;SDS011;40076;52.354;4.970;2023-10-09T01:39:47;35.90;;;20.48;;
54171;SDS011;40076;52.354;4.970;2023-10-09T01:42:17;34.47;;;18.73;;
54171;SDS011;40076;52.354;4.970;2023-10-09T01:44:58;32.25;;;20.05;;
54171;SDS011;40076;52.354;4.970;2023-10-09T01:50:29;31.88;;;18.38;;
54171;SDS011;40076;52.354;4.970;2023-10-09T01:53:00;29.42;;;17.88;;
54171;SDS011;40076;52.354;4.970;2023-10-09T01:55:30;29.88;;;17.30;;
54171;SDS011;40076;52.354;4.970;2023-10-09T02:00:57;30.87;;;16.93;;
54171;SDS011;40076;52.354;4.970;2023-10-09T02:03:29;27.35;;;15.23;;
54171;SDS011;40076;52.354;4.970;2023-10-09T02:05:55;26.67;;;15.27;;
54171;SDS011;40076;52.354;4.970;2023-10-09T02:08:41;24.92;;;14.10;;
54171;SDS011;40076;52.354;4.970;2023-10-09T02:11:14;31.33;;;14.95;;
54171;SDS011;40076;52.354;4.970;2023-10-09T02:13:40;21.73;;;13.32;;
54171;SDS011;40076;52.354;4.970;2023-10-09T02:16:07;28.50;;;14.38;;
54171;SDS011;40076;52.354;4.970;2023-10-09T02:18:41;33.05;;;13.27;;
54171;SDS011;40076;52.354;4.970;2023-10-09T02:21:21;23.00;;;11.85;;
54171;SDS011;40076;52.354;4.970;2023-10-09T02:24:07;23.92;;;12.48;;
54171;SDS011;40076;52.354;4.970;2023-10-09T02:26:51;19.48;;;11.07;;
54171;SDS011;40076;52.354;4.970;2023-10-09T02:29:17;24.73;;;11.55;;
54171;SDS011;40076;52.354;4.970;2023-10-09T02:31:42;21.52;;;10.82;;
54171;SDS011;40076;52.354;4.970;2023-10-09T02:34:11;18.55;;;9.75;;
54171;SDS011;40076;52.354;4.970;2023-10-09T02:36:37;22.83;;;10.02;;
54171;SDS011;40076;52.354;4.970;2023-10-09T02:39:06;21.63;;;9.68;;
54171;SDS011;40076;52.354;4.970;2023-10-09T02:41:41;21.48;;;9.20;;
54171;SDS011;40076;52.354;4.970;2023-10-09T02:44:14;23.38;;;9.63;;
54171;SDS011;40076;52.354;4.970;2023-10-09T02:46:40;17.13;;;8.60;;
54171;SDS011;40076;52.354;4.970;2023-10-09T02:49:05;15.18;;;8.38;;
54171;SDS011;40076;52.354;4.970;2023-10-09T02:51:31;20.40;;;8.55;;
54171;SDS011;40076;52.354;4.970;2023-10-09T02:54:06;14.70;;;7.95;;
54171;SDS011;40076;52.354;4.970;2023-10-09T02:56:59;16.40;;;8.70;;
54171;SDS011;40076;52.354;4.970;2023-10-09T02:59:32;14.43;;;7.33;;
54171;SDS011;40076;52.354;4.970;2023-10-09T03:01:57;16.63;;;7.40;;
54171;SDS011;40076;52.354;4.970;2023-10-09T03:04:25;15.55;;;7.18;;
54171;SDS011;40076;52.354;4.970;2023-10-09T03:06:56;17.98;;;7.50;;
54171;SDS011;40076;52.354;4.970;2023-10-09T03:09:22;21.58;;;7.10;;
54171;SDS011;40076;52.354;4.970;2023-10-09T03:11:52;15.13;;;6.80;;
54171;SDS011;40076;52.354;4.970;2023-10-09T03:14:27;17.45;;;7.47;;
54171;SDS011;40076;52.354;4.970;2023-10-09T03:16:54;15.93;;;6.55;;
54171;SDS011;40076;52.354;4.970;2023-10-09T03:19:21;13.50;;;6.55;;
54171;SDS011;40076;52.354;4.970;2023-10-09T03:21:49;20.00;;;7.47;;
54171;SDS011;40076;52.354;4.970;2023-10-09T03:24:15;16.67;;;7.20;;
54171;SDS011;40076;52.354;4.970;2023-10-09T03:26:41;17.52;;;7.00;;
54171;SDS011;40076;52.354;4.970;2023-10-09T03:29:09;19.77;;;8.18;;
54171;SDS011;40076;52.354;4.970;2023-10-09T03:31:38;16.98;;;7.22;;
54171;SDS011;40076;52.354;4.970;2023-10-09T03:34:04;18.02;;;7.38;;
54171;SDS011;40076;52.354;4.970;2023-10-09T03:36:30;15.98;;;7.32;;
54171;SDS011;40076;52.354;4.970;2023-10-09T03:38:56;16.88;;;6.93;;
54171;SDS011;40076;52.354;4.970;2023-10-09T03:41:25;18.48;;;7.93;;
54171;SDS011;40076;52.354;4.970;2023-10-09T03:43:54;16.02;;;7.50;;
54171;SDS011;40076;52.354;4.970;2023-10-09T03:46:20;14.38;;;6.80;;
54171;SDS011;40076;52.354;4.970;2023-10-09T03:48:48;15.13;;;6.70;;
54171;SDS011;40076;52.354;4.970;2023-10-09T03:51:14;19.38;;;8.02;;
54171;SDS011;40076;52.354;4.970;2023-10-09T03:53:51;13.70;;;7.45;;
54171;SDS011;40076;52.354;4.970;2023-10-09T03:56:18;17.58;;;6.97;;
54171;SDS011;40076;52.354;4.970;2023-10-09T03:58:46;13.85;;;7.40;;
54171;SDS011;40076;52.354;4.970;2023-10-09T04:01:20;15.07;;;6.90;;
54171;SDS011;40076;52.354;4.970;2023-10-09T04:03:52;15.57;;;7.68;;
54171;SDS011;40076;52.354;4.970;2023-10-09T04:06:20;15.10;;;6.78;;
54171;SDS011;40076;52.354;4.970;2023-10-09T04:08:46;18.08;;;7.68;;
54171;SDS011;40076;52.354;4.970;2023-10-09T04:11:14;18.85;;;7.65;;
54171;SDS011;40076;52.354;4.970;2023-10-09T04:13:45;16.33;;;6.78;;
54171;SDS011;40076;52.354;4.970;2023-10-09T04:16:33;16.77;;;7.57;;
54171;SDS011;40076;52.354;4.970;2023-10-09T04:19:02;15.68;;;6.60;;
54171;SDS011;40076;52.354;4.970;2023-10-09T04:21:36;14.57;;;6.75;;
54171;SDS011;40076;52.354;4.970;2023-10-09T04:24:08;16.90;;;7.00;;
54171;SDS011;40076;52.354;4.970;2023-10-09T04:26:43;12.85;;;6.65;;
54171;SDS011;40076;52.354;4.970;2023-10-09T04:29:10;16.70;;;7.00;;
54171;SDS011;40076;52.354;4.970;2023-10-09T04:31:59;14.23;;;6.68;;
54171;SDS011;40076;52.354;4.970;2023-10-09T04:34:26;17.98;;;7.50;;
54171;SDS011;40076;52.354;4.970;2023-10-09T04:37:00;12.50;;;6.80;;
54171;SDS011;40076;52.354;4.970;2023-10-09T04:39:27;18.30;;;6.60;;
54171;SDS011;40076;52.354;4.970;2023-10-09T04:41:56;12.35;;;6.97;;
54171;SDS011;40076;52.354;4.970;2023-10-09T04:44:44;13.35;;;7.30;;
54171;SDS011;40076;52.354;4.970;2023-10-09T04:47:28;13.95;;;7.88;;
54171;SDS011;40076;52.354;4.970;2023-10-09T04:50:10;20.08;;;7.03;;
54171;SDS011;40076;52.354;4.970;2023-10-09T04:52:54;17.23;;;7.95;;
54171;SDS011;40076;52.354;4.970;2023-10-09T04:55:19;17.15;;;7.82;;
54171;SDS011;40076;52.354;4.970;2023-10-09T04:57:49;14.70;;;7.22;;
54171;SDS011;40076;52.354;4.970;2023-10-09T05:00:34;16.45;;;7.38;;
54171;SDS011;40076;52.354;4.970;2023-10-09T05:03:00;16.52;;;8.38;;
54171;SDS011;40076;52.354;4.970;2023-10-09T05:05:35;17.02;;;7.57;;
54171;SDS011;40076;52.354;4.970;2023-10-09T05:08:10;16.73;;;7.50;;
54171;SDS011;40076;52.354;4.970;2023-10-09T05:13:25;12.30;;;7.18;;
54171;SDS011;40076;52.354;4.970;2023-10-09T05:16:17;13.75;;;7.07;;
54171;SDS011;40076;52.354;4.970;2023-10-09T05:18:44;14.82;;;6.70;;
54171;SDS011;40076;52.354;4.970;2023-10-09T05:21:20;15.15;;;6.90;;
54171;SDS011;40076;52.354;4.970;2023-10-09T05:23:56;16.75;;;6.68;;
54171;SDS011;40076;52.354;4.970;2023-10-09T05:26:39;16.83;;;6.93;;
54171;SDS011;40076;52.354;4.970;2023-10-09T05:29:12;12.73;;;6.82;;
54171;SDS011;40076;52.354;4.970;2023-10-09T05:32:04;16.20;;;6.82;;
54171;SDS011;40076;52.354;4.970;2023-10-09T05:34:39;15.38;;;6.65;;
54171;SDS011;40076;52.354;4.970;2023-10-09T05:37:30;17.25;;;6.20;;
54171;SDS011;40076;52.354;4.970;2023-10-09T05:40:08;11.35;;;5.93;;
54171;SDS011;40076;52.354;4.970;2023-10-09T05:42:43;17.60;;;6.38;;
54171;SDS011;40076;52.354;4.970;2023-10-09T05:45:17;12.80;;;6.72;;
54171;SDS011;40076;52.354;4.970;2023-10-09T05:50:25;15.63;;;6.90;;
54171;SDS011;40076;52.354;4.970;2023-10-09T05:52:52;15.90;;;7.82;;
54171;SDS011;40076;52.354;4.970;2023-10-09T05:55:19;14.82;;;7.20;;
54171;SDS011;40076;52.354;4.970;2023-10-09T06:00:40;16.55;;;6.07;;
54171;SDS011;40076;52.354;4.970;2023-10-09T06:03:27;17.90;;;7.32;;
54171;SDS011;40076;52.354;4.970;2023-10-09T06:06:28;16.73;;;7.25;;
54171;SDS011;40076;52.354;4.970;2023-10-09T06:09:28;16.67;;;6.88;;
54171;SDS011;40076;52.354;4.970;2023-10-09T06:19:42;14.88;;;6.90;;
54171;SDS011;40076;52.354;4.970;2023-10-09T06:22:24;16.10;;;7.20;;
54171;SDS011;40076;52.354;4.970;2023-10-09T06:25:22;17.52;;;7.57;;
54171;SDS011;40076;52.354;4.970;2023-10-09T06:27:57;17.05;;;7.43;;
54171;SDS011;40076;52.354;4.970;2023-10-09T06:33:49;15.20;;;6.70;;
54171;SDS011;40076;52.354;4.970;2023-10-09T06:36:40;17.25;;;7.13;;
54171;SDS011;40076;52.354;4.970;2023-10-09T06:40:13;17.63;;;7.75;;
54171;SDS011;40076;52.354;4.970;2023-10-09T06:43:07;14.85;;;7.43;;
54171;SDS011;40076;52.354;4.970;2023-10-09T06:45:36;20.58;;;7.93;;
54171;SDS011;40076;52.354;4.970;2023-10-09T06:48:25;14.75;;;6.47;;
54171;SDS011;40076;52.354;4.970;2023-10-09T06:51:04;16.95;;;7.35;;
54171;SDS011;40076;52.354;4.970;2023-10-09T06:53:45;15.57;;;7.72;;
54171;SDS011;40076;52.354;4.970;2023-10-09T06:56:22;21.10;;;7.53;;
54171;SDS011;40076;52.354;4.970;2023-10-09T06:58:57;20.63;;;7.88;;
54171;SDS011;40076;52.354;4.970;2023-10-09T07:01:30;20.13;;;8.05;;
54171;SDS011;40076;52.354;4.970;2023-10-09T07:04:14;17.80;;;7.22;;
54171;SDS011;40076;52.354;4.970;2023-10-09T07:06:57;24.55;;;7.93;;
54171;SDS011;40076;52.354;4.970;2023-10-09T07:09:31;14.85;;;7.35;;
54171;SDS011;40076;52.354;4.970;2023-10-09T07:12:28;16.13;;;6.65;;
54171;SDS011;40076;52.354;4.970;2023-10-09T07:14:58;17.52;;;7.72;;
54171;SDS011;40076;52.354;4.970;2023-10-09T07:17:26;18.83;;;7.68;;
54171;SDS011;40076;52.354;4.970;2023-10-09T07:19:58;17.63;;;7.20;;
54171;SDS011;40076;52.354;4.970;2023-10-09T07:22:35;21.92;;;7.90;;
54171;SDS011;40076;52.354;4.970;2023-10-09T07:25:04;21.17;;;8.07;;
54171;SDS011;40076;52.354;4.970;2023-10-09T07:27:41;18.15;;;7.78;;
54171;SDS011;40076;52.354;4.970;2023-10-09T07:30:13;22.35;;;7.57;;
54171;SDS011;40076;52.354;4.970;2023-10-09T07:32:58;16.20;;;7.13;;
54171;SDS011;40076;52.354;4.970;2023-10-09T07:35:35;18.88;;;7.78;;
54171;SDS011;40076;52.354;4.970;2023-10-09T07:38:09;19.33;;;7.68;;
54171;SDS011;40076;52.354;4.970;2023-10-09T07:40:48;26.42;;;8.13;;
54171;SDS011;40076;52.354;4.970;2023-10-09T07:43:33;20.83;;;8.27;;
54171;SDS011;40076;52.354;4.970;2023-10-09T07:46:14;15.80;;;7.40;;
54171;SDS011;40076;52.354;4.970;2023-10-09T07:49:01;20.38;;;8.57;;
54171;SDS011;40076;52.354;4.970;2023-10-09T07:51:37;18.95;;;7.40;;
54171;SDS011;40076;52.354;4.970;2023-10-09T07:54:04;20.27;;;7.30;;
54171;SDS011;40076;52.354;4.970;2023-10-09T07:56:36;19.45;;;7.80;;
54171;SDS011;40076;52.354;4.970;2023-10-09T07:59:18;17.42;;;7.65;;
54171;SDS011;40076;52.354;4.970;2023-10-09T08:01:44;16.83;;;7.30;;
54171;SDS011;40076;52.354;4.970;2023-10-09T08:04:23;18.17;;;8.38;;
54171;SDS011;40076;52.354;4.970;2023-10-09T08:07:10;20.45;;;7.60;;
54171;SDS011;40076;52.354;4.970;2023-10-09T08:09:45;17.42;;;7.97;;
54171;SDS011;40076;52.354;4.970;2023-10-09T08:12:14;17.60;;;7.60;;
54171;SDS011;40076;52.354;4.970;2023-10-09T08:15:00;18.83;;;7.93;;
54171;SDS011;40076;52.354;4.970;2023-10-09T08:20:28;14.93;;;7.07;;
54171;SDS011;40076;52.354;4.970;2023-10-09T08:23:14;19.67;;;7.10;;
54171;SDS011;40076;52.354;4.970;2023-10-09T08:26:13;19.50;;;7.93;;
54171;SDS011;40076;52.354;4.970;2023-10-09T08:28:43;19.95;;;7.20;;
54171;SDS011;40076;52.354;4.970;2023-10-09T08:33:59;20.55;;;7.53;;
54171;SDS011;40076;52.354;4.970;2023-10-09T08:36:26;20.38;;;6.72;;
54171;SDS011;40076;52.354;4.970;2023-10-09T08:38:53;16.55;;;7.20;;
54171;SDS011;40076;52.354;4.970;2023-10-09T08:41:23;19.10;;;6.55;;
54171;SDS011;40076;52.354;4.970;2023-10-09T08:43:55;13.52;;;6.45;;
54171;SDS011;40076;52.354;4.970;2023-10-09T08:46:24;15.25;;;6.63;;
54171;SDS011;40076;52.354;4.970;2023-10-09T08:48:56;15.75;;;6.43;;
54171;SDS011;40076;52.354;4.970;2023-10-09T08:51:24;16.75;;;6.95;;
54171;SDS011;40076;52.354;4.970;2023-10-09T08:53:50;19.00;;;7.25;;
54171;SDS011;40076;52.354;4.970;2023-10-09T08:56:17;15.20;;;7.00;;
54171;SDS011;40076;52.354;4.970;2023-10-09T08:58:50;19.17;;;7.07;;
54171;SDS011;40076;52.354;4.970;2023-10-09T09:01:27;13.57;;;5.90;;
54171;SDS011;40076;52.354;4.970;2023-10-09T09:03:57;18.92;;;6.63;;
54171;SDS011;40076;52.354;4.970;2023-10-09T09:06:22;17.95;;;6.93;;
54171;SDS011;40076;52.354;4.970;2023-10-09T09:08:49;18.85;;;6.65;;
54171;SDS011;40076;52.354;4.970;2023-10-09T09:11:20;11.23;;;5.95;;
54171;SDS011;40076;52.354;4.970;2023-10-09T09:16:24;15.48;;;7.28;;
54171;SDS011;40076;52.354;4.970;2023-10-09T09:18:58;15.73;;;6.00;;
54171;SDS011;40076;52.354;4.970;2023-10-09T09:21:34;14.20;;;6.63;;
54171;SDS011;40076;52.354;4.970;2023-10-09T09:24:11;17.50;;;6.65;;
54171;SDS011;40076;52.354;4.970;2023-10-09T09:26:44;17.23;;;6.97;;
54171;SDS011;40076;52.354;4.970;2023-10-09T09:29:12;12.27;;;6.43;;
54171;SDS011;40076;52.354;4.970;2023-10-09T09:31:55;16.25;;;6.88;;
54171;SDS011;40076;52.354;4.970;2023-10-09T09:34:50;18.38;;;6.82;;
54171;SDS011;40076;52.354;4.970;2023-10-09T09:37:20;15.45;;;7.40;;
54171;SDS011;40076;52.354;4.970;2023-10-09T09:39:47;18.13;;;7.00;;
54171;SDS011;40076;52.354;4.970;2023-10-09T09:42:16;15.52;;;7.20;;
54171;SDS011;40076;52.354;4.970;2023-10-09T09:47:15;22.92;;;7.13;;
54171;SDS011;40076;52.354;4.970;2023-10-09T09:49:55;18.27;;;6.60;;
54171;SDS011;40076;52.354;4.970;2023-10-09T09:52:36;14.95;;;6.30;;
54171;SDS011;40076;52.354;4.970;2023-10-09T09:55:08;16.85;;;6.20;;
54171;SDS011;40076;52.354;4.970;2023-10-09T09:57:46;12.73;;;6.57;;
54171;SDS011;40076;52.354;4.970;2023-10-09T10:00:16;16.83;;;6.53;;
54171;SDS011;40076;52.354;4.970;2023-10-09T10:03:26;18.05;;;7.30;;
54171;SDS011;40076;52.354;4.970;2023-10-09T10:05:57;12.32;;;7.07;;
54171;SDS011;40076;52.354;4.970;2023-10-09T10:08:25;18.23;;;6.68;;
54171;SDS011;40076;52.354;4.970;2023-10-09T10:16:10;14.45;;;6.15;;
54171;SDS011;40076;52.354;4.970;2023-10-09T10:19:04;21.33;;;7.38;;
54171;SDS011;40076;52.354;4.970;2023-10-09T10:21:33;18.00;;;7.03;;
54171;SDS011;40076;52.354;4.970;2023-10-09T10:29:43;17.55;;;7.13;;
54171;SDS011;40076;52.354;4.970;2023-10-09T10:32:11;12.95;;;5.82;;
54171;SDS011;40076;52.354;4.970;2023-10-09T10:37:12;16.05;;;7.15;;
54171;SDS011;40076;52.354;4.970;2023-10-09T10:39:49;19.05;;;7.80;;
54171;SDS011;40076;52.354;4.970;2023-10-09T10:42:24;17.05;;;7.50;;
54171;SDS011;40076;52.354;4.970;2023-10-09T10:45:02;17.73;;;6.57;;
54171;SDS011;40076;52.354;4.970;2023-10-09T10:47:40;17.88;;;6.70;;
54171;SDS011;40076;52.354;4.970;2023-10-09T10:50:07;18.15;;;6.90;;
54171;SDS011;40076;52.354;4.970;2023-10-09T10:52:37;15.55;;;6.82;;
54171;SDS011;40076;52.354;4.970;2023-10-09T10:55:10;20.83;;;6.60;;
54171;SDS011;40076;52.354;4.970;2023-10-09T10:57:57;15.73;;;6.57;;
54171;SDS011;40076;52.354;4.970;2023-10-09T11:00:52;14.45;;;6.93;;
54171;SDS011;40076;52.354;4.970;2023-10-09T11:03:37;13.70;;;5.82;;
54171;SDS011;40076;52.354;4.970;2023-10-09T11:06:27;19.27;;;7.07;;
54171;SDS011;40076;52.354;4.970;2023-10-09T11:09:03;16.80;;;6.25;;
54171;SDS011;40076;52.354;4.970;2023-10-09T11:11:51;14.70;;;6.25;;
54171;SDS011;40076;52.354;4.970;2023-10-09T11:14:20;14.85;;;5.93;;
54171;SDS011;40076;52.354;4.970;2023-10-09T11:16:49;19.13;;;5.63;;
54171;SDS011;40076;52.354;4.970;2023-10-09T11:19:19;17.40;;;6.07;;
54171;SDS011;40076;52.354;4.970;2023-10-09T11:21:55;19.63;;;6.05;;
54171;SDS011;40076;52.354;4.970;2023-10-09T11:24:44;16.02;;;6.43;;
54171;SDS011;40076;52.354;4.970;2023-10-09T11:27:12;17.45;;;5.82;;
54171;SDS011;40076;52.354;4.970;2023-10-09T11:29:49;17.40;;;6.10;;
54171;SDS011;40076;52.354;4.970;2023-10-09T11:32:19;15.38;;;6.03;;
54171;SDS011;40076;52.354;4.970;2023-10-09T11:37:56;15.52;;;6.05;;
54171;SDS011;40076;52.354;4.970;2023-10-09T11:40:31;15.23;;;5.50;;
54171;SDS011;40076;52.354;4.970;2023-10-09T11:43:15;16.55;;;6.35;;
54171;SDS011;40076;52.354;4.970;2023-10-09T11:45:51;13.23;;;6.22;;
54171;SDS011;40076;52.354;4.970;2023-10-09T11:48:20;17.17;;;6.03;;
54171;SDS011;40076;52.354;4.970;2023-10-09T11:50:52;24.05;;;6.53;;
54171;SDS011;40076;52.354;4.970;2023-10-09T11:53:20;13.90;;;5.55;;
54171;SDS011;40076;52.354;4.970;2023-10-09T11:55:49;12.38;;;5.25;;
54171;SDS011;40076;52.354;4.970;2023-10-09T11:58:28;22.02;;;6.13;;
54171;SDS011;40076;52.354;4.970;2023-10-09T12:00:56;15.30;;;5.60;;
54171;SDS011;40076;52.354;4.970;2023-10-09T12:03:28;13.50;;;5.45;;
54171;SDS011;40076;52.354;4.970;2023-10-09T12:05:58;17.63;;;6.75;;
54171;SDS011;40076;52.354;4.970;2023-10-09T12:08:33;16.55;;;5.63;;
54171;SDS011;40076;52.354;4.970;2023-10-09T12:10:59;13.60;;;5.43;;
54171;SDS011;40076;52.354;4.970;2023-10-09T12:13:29;13.75;;;6.03;;
54171;SDS011;40076;52.354;4.970;2023-10-09T12:15:54;16.13;;;5.93;;
54171;SDS011;40076;52.354;4.970;2023-10-09T12:18:20;15.52;;;5.47;;
54171;SDS011;40076;52.354;4.970;2023-10-09T12:20:47;15.68;;;6.05;;
54171;SDS011;40076;52.354;4.970;2023-10-09T12:23:16;15.70;;;5.85;;
54171;SDS011;40076;52.354;4.970;2023-10-09T12:25:47;16.92;;;5.93;;
54171;SDS011;40076;52.354;4.970;2023-10-09T12:28:21;13.95;;;5.72;;
54171;SDS011;40076;52.354;4.970;2023-10-09T12:30:47;16.77;;;5.97;;
54171;SDS011;40076;52.354;4.970;2023-10-09T12:33:19;16.02;;;5.88;;
54171;SDS011;40076;52.354;4.970;2023-10-09T12:35:52;16.92;;;6.63;;
54171;SDS011;40076;52.354;4.970;2023-10-09T12:38:41;19.40;;;5.90;;
54171;SDS011;40076;52.354;4.970;2023-10-09T12:41:17;15.85;;;6.10;;
54171;SDS011;40076;52.354;4.970;2023-10-09T12:43:51;18.45;;;6.60;;
54171;SDS011;40076;52.354;4.970;2023-10-09T12:46:20;20.48;;;7.20;;
54171;SDS011;40076;52.354;4.970;2023-10-09T12:48:50;15.27;;;7.05;;
54171;SDS011;40076;52.354;4.970;2023-10-09T12:51:19;20.58;;;6.28;;
54171;SDS011;40076;52.354;4.970;2023-10-09T12:53:45;19.48;;;7.50;;
54171;SDS011;40076;52.354;4.970;2023-10-09T12:56:16;19.67;;;6.53;;
54171;SDS011;40076;52.354;4.970;2023-10-09T12:58:44;16.30;;;6.40;;
54171;SDS011;40076;52.354;4.970;2023-10-09T13:03:45;18.42;;;6.15;;
54171;SDS011;40076;52.354;4.970;2023-10-09T13:06:14;16.20;;;6.07;;
54171;SDS011;40076;52.354;4.970;2023-10-09T13:08:40;17.27;;;6.13;;
54171;SDS011;40076;52.354;4.970;2023-10-09T13:11:10;18.60;;;6.25;;
54171;SDS011;40076;52.354;4.970;2023-10-09T13:13:40;13.57;;;5.53;;
54171;SDS011;40076;52.354;4.970;2023-10-09T13:16:08;14.18;;;5.95;;
54171;SDS011;40076;52.354;4.970;2023-10-09T13:18:45;20.17;;;6.28;;
54171;SDS011;40076;52.354;4.970;2023-10-09T13:21:23;15.65;;;7.00;;
54171;SDS011;40076;52.354;4.970;2023-10-09T13:23:56;15.38;;;6.40;;
54171;SDS011;40076;52.354;4.970;2023-10-09T13:26:49;14.00;;;6.50;;
54171;SDS011;40076;52.354;4.970;2023-10-09T13:29:17;15.15;;;6.75;;
54171;SDS011;40076;52.354;4.970;2023-10-09T13:31:47;15.82;;;6.13;;
54171;SDS011;40076;52.354;4.970;2023-10-09T13:34:14;17.05;;;6.35;;
54171;SDS011;40076;52.354;4.970;2023-10-09T13:36:42;17.40;;;6.43;;
54171;SDS011;40076;52.354;4.970;2023-10-09T13:39:17;17.23;;;6.40;;
54171;SDS011;40076;52.354;4.970;2023-10-09T13:41:46;16.20;;;7.75;;
54171;SDS011;40076;52.354;4.970;2023-10-09T13:44:26;19.77;;;6.63;;
54171;SDS011;40076;52.354;4.970;2023-10-09T13:47:04;13.25;;;5.90;;
54171;SDS011;40076;52.354;4.970;2023-10-09T13:49:43;13.80;;;5.80;;
54171;SDS011;40076;52.354;4.970;2023-10-09T13:52:09;10.13;;;5.90;;
54171;SDS011;40076;52.354;4.970;2023-10-09T13:54:50;16.70;;;6.07;;
54171;SDS011;40076;52.354;4.970;2023-10-09T13:57:20;15.27;;;6.38;;
54171;SDS011;40076;52.354;4.970;2023-10-09T13:59:57;16.55;;;7.13;;
54171;SDS011;40076;52.354;4.970;2023-10-09T14:02:25;15.85;;;6.32;;
54171;SDS011;40076;52.354;4.970;2023-10-09T14:04:53;17.75;;;6.80;;
54171;SDS011;40076;52.354;4.970;2023-10-09T14:07:22;15.35;;;6.95;;
54171;SDS011;40076;52.354;4.970;2023-10-09T14:09:48;21.33;;;7.68;;
54171;SDS011;40076;52.354;4.970;2023-10-09T14:12:32;17.40;;;6.93;;
54171;SDS011;40076;52.354;4.970;2023-10-09T14:14:59;14.70;;;7.53;;
54171;SDS011;40076;52.354;4.970;2023-10-09T14:17:28;14.40;;;6.90;;
54171;SDS011;40076;52.354;4.970;2023-10-09T14:19:54;15.32;;;6.82;;
54171;SDS011;40076;52.354;4.970;2023-10-09T14:22:26;20.35;;;6.97;;
54171;SDS011;40076;52.354;4.970;2023-10-09T14:24:54;18.77;;;7.00;;
54171;SDS011;40076;52.354;4.970;2023-10-09T14:27:24;14.48;;;6.82;;
54171;SDS011;40076;52.354;4.970;2023-10-09T14:29:52;19.33;;;7.82;;
54171;SDS011;40076;52.354;4.970;2023-10-09T14:32:24;19.83;;;7.40;;
54171;SDS011;40076;52.354;4.970;2023-10-09T14:35:08;14.07;;;6.80;;
54171;SDS011;40076;52.354;4.970;2023-10-09T14:37:38;19.10;;;7.35;;
54171;SDS011;40076;52.354;4.970;2023-10-09T14:40:04;17.88;;;7.72;;
54171;SDS011;40076;52.354;4.970;2023-10-09T14:42:37;19.52;;;8.68;;
54171;SDS011;40076;52.354;4.970;2023-10-09T14:45:03;24.33;;;9.40;;
54171;SDS011;40076;52.354;4.970;2023-10-09T14:47:33;21.45;;;9.63;;
54171;SDS011;40076;52.354;4.970;2023-10-09T14:49:58;22.27;;;9.48;;
54171;SDS011;40076;52.354;4.970;2023-10-09T14:52:26;18.70;;;9.48;;
54171;SDS011;40076;52.354;4.970;2023-10-09T14:54:52;22.73;;;10.80;;
54171;SDS011;40076;52.354;4.970;2023-10-09T14:57:18;21.00;;;9.77;;
54171;SDS011;40076;52.354;4.970;2023-10-09T14:59:43;18.63;;;10.02;;
54171;SDS011;40076;52.354;4.970;2023-10-09T15:02:09;23.80;;;11.15;;
54171;SDS011;40076;52.354;4.970;2023-10-09T15:04:35;20.05;;;10.38;;
54171;SDS011;40076;52.354;4.970;2023-10-09T15:07:05;16.35;;;9.15;;
54171;SDS011;40076;52.354;4.970;2023-10-09T15:09:44;21.98;;;10.57;;
54171;SDS011;40076;52.354;4.970;2023-10-09T15:12:15;20.20;;;9.50;;
54171;SDS011;40076;52.354;4.970;2023-10-09T15:15:06;22.67;;;9.32;;
54171;SDS011;40076;52.354;4.970;2023-10-09T15:24:48;21.23;;;8.45;;
54171;SDS011;40076;52.354;4.970;2023-10-09T15:27:16;18.77;;;10.65;;
54171;SDS011;40076;52.354;4.970;2023-10-09T15:29:49;20.48;;;10.02;;
54171;SDS011;40076;52.354;4.970;2023-10-09T15:32:15;21.98;;;10.00;;
54171;SDS011;40076;52.354;4.970;2023-10-09T15:35:10;22.80;;;8.82;;
54171;SDS011;40076;52.354;4.970;2023-10-09T15:38:15;19.30;;;9.25;;
54171;SDS011;40076;52.354;4.970;2023-10-09T15:40:50;17.15;;;9.20;;
54171;SDS011;40076;52.354;4.970;2023-10-09T15:43:15;23.08;;;8.88;;
54171;SDS011;40076;52.354;4.970;2023-10-09T15:45:43;21.88;;;9.38;;
54171;SDS011;40076;52.354;4.970;2023-10-09T15:48:12;23.42;;;10.95;;
54171;SDS011;40076;52.354;4.970;2023-10-09T15:50:45;24.25;;;11.90;;
54171;SDS011;40076;52.354;4.970;2023-10-09T15:53:16;25.85;;;12.55;;
54171;SDS011;40076;52.354;4.970;2023-10-09T15:55:47;24.95;;;12.18;;
54171;SDS011;40076;52.354;4.970;2023-10-09T15:58:16;19.52;;;11.15;;
54171;SDS011;40076;52.354;4.970;2023-10-09T16:00:43;19.92;;;9.77;;
54171;SDS011;40076;52.354;4.970;2023-10-09T16:03:09;15.18;;;8.07;;
54171;SDS011;40076;52.354;4.970;2023-10-09T16:05:35;22.52;;;10.40;;
54171;SDS011;40076;52.354;4.970;2023-10-09T16:08:01;21.40;;;8.75;;
54171;SDS011;40076;52.354;4.970;2023-10-09T16:10:28;18.35;;;8.63;;
54171;SDS011;40076;52.354;4.970;2023-10-09T16:12:56;20.13;;;9.32;;
54171;SDS011;40076;52.354;4.970;2023-10-09T16:15:22;21.17;;;9.45;;